This demonstration page uses our WeatherBlox Daily Observations layout. Learn more.

39.29038, -76.61219

Hourly Observations for January 23, 2019

Temp ( °F °C ) Dew Point ( °F °C ) Humidity (%) Winds ( mph kmh ) Pressure ( in mb ) Visibility ( mi km ) Precip ( " mm )
12:54 am 00:54 undefined 30 -1.1 13 -10.6 49 49 undefined N/A 30.5 1033 N/A 0 0
1:54 am 01:54 undefined 30 -1.1 14 -10 51 51 undefined N/A 30.48 1032 N/A 0 0
2:54 am 02:54 undefined 29 -1.7 15 -9.4 56 56 undefined N/A 30.45 1031 N/A 0 0
3:54 am 03:54 undefined 30 -1.1 15 -9.4 54 54 undefined N/A 30.39 1029 N/A 0 0
4:54 am 04:54 undefined 30 -1.1 15 -9.4 54 54 undefined N/A 30.36 1028 N/A 0 0
5:54 am 05:54 undefined 31 -0.6 14 -10 49 49 undefined N/A 30.36 1028 N/A 0 0
6:54 am 06:54 undefined 33 0.6 13 -10.6 43 43 undefined N/A 30.33 1027 N/A 0 0
7:54 am 07:54 undefined 35 1.7 12 -11.1 38 38 undefined N/A 30.33 1027 N/A 0 0
8:54 am 08:54 undefined 36 2.2 13 -10.6 39 39 undefined N/A 30.33 1027 N/A 0 0
9:54 am 09:54 undefined 38 3.3 14 -10 37 37 undefined N/A 30.3 1026 N/A 0 0
10:54 am 10:54 undefined 41 5 17 -8.3 38 38 undefined N/A 30.3 1026 N/A 0 0
11:54 am 11:54 undefined 45 7.2 24 -4.4 44 44 undefined N/A 30.24 1024 N/A 0 0
12:54 pm 12:54 undefined 49 9.4 31 -0.6 50 50 undefined N/A 30.21 1023 N/A 0 0
1:54 pm 13:54 undefined 50 10 32 0 50 50 undefined N/A 30.15 1021 N/A 0 0
2:54 pm 14:54 undefined 48 8.9 33 0.6 56 56 undefined N/A 30.09 1019 N/A 0 0
3:54 pm 15:54 undefined 47 8.3 34 1.1 61 61 undefined N/A 30.06 1018 N/A 0 0
4:54 pm 16:54 undefined 45 7.2 34 1.1 66 66 undefined N/A 30.03 1017 N/A 0 0
5:54 pm 17:54 undefined 43 6.1 34 1.1 71 71 undefined N/A 30 1016 N/A 0 0
6:54 pm 18:54 undefined 43 6.1 35 1.7 74 74 undefined N/A 30 1016 N/A 0 0
7:54 pm 19:54 undefined 44 6.7 35 1.7 71 71 undefined N/A 29.97 1015 N/A 0 0
8:54 pm 20:54 undefined 43 6.1 35 1.7 74 74 undefined N/A 29.94 1014 N/A 0 0
9:54 pm 21:54 undefined 46 7.8 37 2.8 71 71 undefined N/A 29.91 1013 N/A 0 0
10:54 pm 22:54 undefined 46 7.8 39 3.9 77 77 undefined N/A 29.88 1012 N/A 0 0
11:54 pm 23:54 undefined 47 8.3 42 5.6 83 83 undefined N/A 29.85 1011 N/A 0 0

Powered by AerisWeather